EZY533 EGAC-EGGP
Flight info
| Callsign | EZY533 |
|---|---|
| Flight time | 0h 29m |
| Altitude | 21000 |
| Route | DUFFY L15 PEPOD Q38 SOSIM L28 PENIL |
| Aircraft | A320/M-SDE3FGHIRWY/LB1 |
Departure
| Time | 2026-04-29 12:17 |
|---|---|
| Airport | George Best Belfast City Airport (EGAC) |
Arrival
| Time | 2026-04-29 12:46 |
|---|---|
| Airport | Liverpool John Lennon Airport (EGGP) |
| Time | Latitude | Longitude | Altitude | Speed | Heading |
|---|---|---|---|---|---|
| 2026-04-29 11:44 | 54.61499 | -5.87145 | 25 ft | 0 kts | 156° |
| 2026-04-29 12:09 | 54.61516 | -5.87158 | 24 ft | 4 kts | 148° |
| 2026-04-29 12:09 | 54.61535 | -5.87186 | 24 ft | 4 kts | 115° |
| 2026-04-29 12:10 | 54.61538 | -5.87215 | 22 ft | 2 kts | 37° |
| 2026-04-29 12:10 | 54.61533 | -5.87222 | 26 ft | 0 kts | 35° |
| 2026-04-29 12:13 | 54.61555 | -5.87194 | 24 ft | 10 kts | 35° |
| 2026-04-29 12:13 | 54.61623 | -5.87112 | 21 ft | 13 kts | 35° |
| 2026-04-29 12:14 | 54.61700 | -5.87021 | 21 ft | 14 kts | 34° |
| 2026-04-29 12:14 | 54.61784 | -5.87046 | 20 ft | 15 kts | 305° |
| 2026-04-29 12:14 | 54.61867 | -5.87169 | 19 ft | 16 kts | 2° |
| 2026-04-29 12:14 | 54.61973 | -5.87057 | 16 ft | 23 kts | 34° |
| 2026-04-29 12:15 | 54.62109 | -5.86894 | 16 ft | 24 kts | 35° |
| 2026-04-29 12:15 | 54.62236 | -5.86742 | 21 ft | 21 kts | 34° |
| 2026-04-29 12:15 | 54.62354 | -5.86601 | 21 ft | 20 kts | 34° |
| 2026-04-29 12:15 | 54.62473 | -5.86527 | 21 ft | 18 kts | 44° |
| 2026-04-29 12:16 | 54.62462 | -5.86442 | 21 ft | 1 kts | 200° |
| 2026-04-29 12:16 | 54.62455 | -5.86463 | 21 ft | 6 kts | 234° |
| 2026-04-29 12:16 | 54.62417 | -5.86527 | 21 ft | 7 kts | 213° |
| 2026-04-29 12:16 | 54.62361 | -5.86591 | 22 ft | 29 kts | 213° |
| 2026-04-29 12:17 | 54.61944 | -5.87093 | 17 ft | 111 kts | 214° |
| 2026-04-29 12:17 | 54.61139 | -5.88058 | 99 ft | 160 kts | 216° |
| 2026-04-29 12:17 | 54.60262 | -5.89166 | 798 ft | 160 kts | 215° |
| 2026-04-29 12:17 | 54.59315 | -5.90378 | 1299 ft | 178 kts | 208° |
| 2026-04-29 12:18 | 54.58187 | -5.91430 | 1843 ft | 188 kts | 187° |
| 2026-04-29 12:18 | 54.56889 | -5.91412 | 2366 ft | 196 kts | 157° |
| 2026-04-29 12:18 | 54.55657 | -5.90187 | 2845 ft | 217 kts | 143° |
| 2026-04-29 12:18 | 54.54324 | -5.88737 | 3495 ft | 233 kts | 147° |
| 2026-04-29 12:19 | 54.52897 | -5.87324 | 4413 ft | 239 kts | 147° |
| 2026-04-29 12:19 | 54.51438 | -5.85898 | 5385 ft | 243 kts | 146° |
| 2026-04-29 12:19 | 54.49991 | -5.84324 | 6315 ft | 248 kts | 143° |
| 2026-04-29 12:19 | 54.48553 | -5.82633 | 7239 ft | 252 kts | 142° |
| 2026-04-29 12:20 | 54.47112 | -5.80892 | 8145 ft | 256 kts | 142° |
| 2026-04-29 12:20 | 54.45648 | -5.79106 | 9051 ft | 260 kts | 141° |
| 2026-04-29 12:20 | 54.44183 | -5.77318 | 9949 ft | 264 kts | 141° |
| 2026-04-29 12:20 | 54.42666 | -5.75481 | 10693 ft | 274 kts | 141° |
| 2026-04-29 12:21 | 54.41040 | -5.73514 | 11010 ft | 297 kts | 142° |
| 2026-04-29 12:21 | 54.39286 | -5.71402 | 11330 ft | 317 kts | 142° |
| 2026-04-29 12:21 | 54.37449 | -5.69208 | 11987 ft | 325 kts | 142° |
| 2026-04-29 12:21 | 54.35580 | -5.66986 | 12788 ft | 328 kts | 142° |
| 2026-04-29 12:22 | 54.33694 | -5.64748 | 13591 ft | 331 kts | 142° |
| 2026-04-29 12:22 | 54.31798 | -5.62496 | 14374 ft | 333 kts | 142° |
| 2026-04-29 12:22 | 54.29881 | -5.60216 | 15054 ft | 336 kts | 141° |
| 2026-04-29 12:22 | 54.27971 | -5.57861 | 15714 ft | 339 kts | 137° |
| 2026-04-29 12:23 | 54.26321 | -5.54993 | 16358 ft | 339 kts | 126° |
| 2026-04-29 12:23 | 54.24935 | -5.51713 | 17001 ft | 342 kts | 123° |
| 2026-04-29 12:23 | 54.24014 | -5.49510 | 17425 ft | 344 kts | 123° |
| 2026-04-29 12:23 | 54.22139 | -5.45067 | 18262 ft | 349 kts | 123° |
| 2026-04-29 12:24 | 54.20703 | -5.41681 | 18864 ft | 353 kts | 123° |
| 2026-04-29 12:24 | 54.19728 | -5.39382 | 19220 ft | 355 kts | 123° |
| 2026-04-29 12:24 | 54.18289 | -5.35994 | 19751 ft | 358 kts | 123° |
| 2026-04-29 12:24 | 54.16821 | -5.32536 | 20274 ft | 361 kts | 123° |
| 2026-04-29 12:25 | 54.15339 | -5.29048 | 20794 ft | 365 kts | 123° |
| 2026-04-29 12:25 | 54.13836 | -5.25517 | 21256 ft | 368 kts | 123° |
| 2026-04-29 12:25 | 54.10801 | -5.18389 | 21408 ft | 379 kts | 123° |
| 2026-04-29 12:26 | 54.09246 | -5.14749 | 21409 ft | 380 kts | 123° |
| 2026-04-29 12:26 | 54.07687 | -5.11113 | 21408 ft | 380 kts | 123° |
| 2026-04-29 12:26 | 54.06124 | -5.07475 | 21408 ft | 380 kts | 123° |
| 2026-04-29 12:26 | 54.04561 | -5.03841 | 21404 ft | 380 kts | 123° |
| 2026-04-29 12:27 | 54.02994 | -5.00199 | 21396 ft | 380 kts | 123° |
| 2026-04-29 12:27 | 54.01434 | -4.96578 | 21399 ft | 381 kts | 123° |
| 2026-04-29 12:27 | 53.99864 | -4.92945 | 21398 ft | 381 kts | 123° |
| 2026-04-29 12:27 | 53.98297 | -4.89316 | 21398 ft | 381 kts | 123° |
| 2026-04-29 12:28 | 53.96730 | -4.85686 | 21399 ft | 381 kts | 123° |
| 2026-04-29 12:28 | 53.95161 | -4.82054 | 21391 ft | 380 kts | 124° |
| 2026-04-29 12:28 | 53.93592 | -4.78435 | 21385 ft | 380 kts | 124° |
| 2026-04-29 12:28 | 53.92018 | -4.74808 | 21384 ft | 380 kts | 124° |
| 2026-04-29 12:29 | 53.90461 | -4.71232 | 21369 ft | 380 kts | 124° |
| 2026-04-29 12:29 | 53.88884 | -4.67617 | 21400 ft | 380 kts | 124° |
| 2026-04-29 12:29 | 53.87309 | -4.64014 | 21404 ft | 379 kts | 124° |
| 2026-04-29 12:29 | 53.85738 | -4.60425 | 21401 ft | 378 kts | 124° |
| 2026-04-29 12:30 | 53.84174 | -4.56858 | 21395 ft | 378 kts | 124° |
| 2026-04-29 12:30 | 53.82607 | -4.53280 | 21393 ft | 377 kts | 123° |
| 2026-04-29 12:30 | 53.81276 | -4.49539 | 21378 ft | 374 kts | 114° |
| 2026-04-29 12:30 | 53.80293 | -4.45460 | 21379 ft | 374 kts | 110° |
| 2026-04-29 12:31 | 53.79353 | -4.41353 | 21375 ft | 374 kts | 110° |
| 2026-04-29 12:31 | 53.78415 | -4.37297 | 21182 ft | 365 kts | 110° |
| 2026-04-29 12:31 | 53.77491 | -4.33340 | 20730 ft | 358 kts | 110° |
| 2026-04-29 12:31 | 53.76583 | -4.29475 | 20279 ft | 351 kts | 110° |
| 2026-04-29 12:32 | 53.75685 | -4.25667 | 19849 ft | 345 kts | 110° |
| 2026-04-29 12:32 | 53.74803 | -4.21913 | 19428 ft | 340 kts | 110° |
| 2026-04-29 12:32 | 53.73935 | -4.18226 | 19007 ft | 336 kts | 110° |
| 2026-04-29 12:32 | 53.73076 | -4.14578 | 18556 ft | 332 kts | 111° |
| 2026-04-29 12:33 | 53.72228 | -4.10978 | 18110 ft | 328 kts | 111° |
| 2026-04-29 12:33 | 53.71399 | -4.07461 | 17637 ft | 325 kts | 111° |
| 2026-04-29 12:33 | 53.70563 | -4.03918 | 17134 ft | 323 kts | 111° |
| 2026-04-29 12:33 | 53.69731 | -4.00404 | 16636 ft | 321 kts | 111° |
| 2026-04-29 12:34 | 53.68902 | -3.96916 | 16156 ft | 319 kts | 111° |
| 2026-04-29 12:34 | 53.68076 | -3.93440 | 15660 ft | 318 kts | 111° |
| 2026-04-29 12:34 | 53.67253 | -3.89977 | 15155 ft | 318 kts | 111° |
| 2026-04-29 12:34 | 53.66429 | -3.86522 | 14645 ft | 317 kts | 111° |
| 2026-04-29 12:35 | 53.65615 | -3.83120 | 14149 ft | 317 kts | 111° |
| 2026-04-29 12:35 | 53.64783 | -3.79640 | 13589 ft | 316 kts | 111° |
| 2026-04-29 12:35 | 53.63972 | -3.76260 | 13087 ft | 314 kts | 111° |
| 2026-04-29 12:35 | 53.63156 | -3.72855 | 12562 ft | 312 kts | 111° |
| 2026-04-29 12:36 | 53.62341 | -3.69469 | 12044 ft | 311 kts | 112° |
| 2026-04-29 12:36 | 53.61301 | -3.66286 | 11513 ft | 311 kts | 124° |
| 2026-04-29 12:36 | 53.59872 | -3.63552 | 11046 ft | 310 kts | 135° |
| 2026-04-29 12:36 | 53.58337 | -3.61113 | 10926 ft | 297 kts | 134° |
| 2026-04-29 12:37 | 53.56873 | -3.58755 | 10802 ft | 285 kts | 133° |
| 2026-04-29 12:37 | 53.55474 | -3.56485 | 10678 ft | 274 kts | 133° |
| 2026-04-29 12:37 | 53.54123 | -3.54287 | 10460 ft | 267 kts | 133° |
| 2026-04-29 12:37 | 53.52797 | -3.52129 | 10271 ft | 264 kts | 133° |
| 2026-04-29 12:38 | 53.51468 | -3.49972 | 10141 ft | 264 kts | 133° |
| 2026-04-29 12:38 | 53.50141 | -3.47821 | 9911 ft | 266 kts | 133° |
| 2026-04-29 12:38 | 53.48807 | -3.45619 | 9412 ft | 266 kts | 129° |
| 2026-04-29 12:38 | 53.47776 | -3.43107 | 9066 ft | 259 kts | 116° |
| 2026-04-29 12:39 | 53.47002 | -3.40433 | 8400 ft | 256 kts | 115° |
| 2026-04-29 12:39 | 53.46236 | -3.37772 | 7881 ft | 248 kts | 115° |
| 2026-04-29 12:39 | 53.45512 | -3.35257 | 7670 ft | 230 kts | 115° |
| 2026-04-29 12:39 | 53.44800 | -3.32787 | 7563 ft | 245 kts | 115° |
| 2026-04-29 12:40 | 53.44047 | -3.30180 | 7454 ft | 248 kts | 116° |
| 2026-04-29 12:40 | 53.43058 | -3.27817 | 7291 ft | 252 kts | 133° |
| 2026-04-29 12:40 | 53.41699 | -3.25864 | 6630 ft | 261 kts | 138° |
| 2026-04-29 12:40 | 53.40265 | -3.23930 | 5943 ft | 267 kts | 139° |
| 2026-04-29 12:41 | 53.38797 | -3.21971 | 5307 ft | 271 kts | 139° |
| 2026-04-29 12:41 | 53.37316 | -3.19997 | 4657 ft | 274 kts | 139° |
| 2026-04-29 12:41 | 53.35818 | -3.17994 | 3979 ft | 277 kts | 138° |
| 2026-04-29 12:41 | 53.34312 | -3.15973 | 3532 ft | 272 kts | 137° |
| 2026-04-29 12:42 | 53.32941 | -3.13935 | 3381 ft | 254 kts | 125° |
| 2026-04-29 12:42 | 53.32236 | -3.11431 | 3192 ft | 238 kts | 101° |
| 2026-04-29 12:42 | 53.32231 | -3.08672 | 2739 ft | 237 kts | 86° |
| 2026-04-29 12:42 | 53.32371 | -3.05973 | 2419 ft | 221 kts | 86° |
| 2026-04-29 12:43 | 53.32488 | -3.03624 | 2155 ft | 181 kts | 86° |
| 2026-04-29 12:43 | 53.32579 | -3.01723 | 1899 ft | 150 kts | 86° |
| 2026-04-29 12:43 | 53.32656 | -3.00099 | 1705 ft | 133 kts | 87° |
| 2026-04-29 12:43 | 53.32726 | -2.98610 | 1526 ft | 126 kts | 87° |
| 2026-04-29 12:44 | 53.32793 | -2.97177 | 1359 ft | 123 kts | 86° |
| 2026-04-29 12:44 | 53.32860 | -2.95764 | 1202 ft | 122 kts | 86° |
| 2026-04-29 12:44 | 53.32926 | -2.94347 | 1039 ft | 121 kts | 85° |
| 2026-04-29 12:44 | 53.32985 | -2.92947 | 856 ft | 121 kts | 88° |
| 2026-04-29 12:45 | 53.33079 | -2.91532 | 699 ft | 123 kts | 85° |
| 2026-04-29 12:45 | 53.33153 | -2.90106 | 598 ft | 124 kts | 87° |
| 2026-04-29 12:45 | 53.33201 | -2.88680 | 366 ft | 121 kts | 85° |
| 2026-04-29 12:45 | 53.33259 | -2.87291 | 211 ft | 121 kts | 88° |
| 2026-04-29 12:46 | 53.33319 | -2.85936 | 87 ft | 110 kts | 86° |
| 2026-04-29 12:46 | 53.33367 | -2.84886 | 68 ft | 67 kts | 85° |
| 2026-04-29 12:46 | 53.33446 | -2.84446 | 81 ft | 26 kts | 57° |
| 2026-04-29 12:46 | 53.33535 | -2.84255 | 72 ft | 16 kts | 3° |
| 2026-04-29 12:47 | 53.33556 | -2.84399 | 74 ft | 11 kts | 266° |
| 2026-04-29 12:47 | 53.33551 | -2.84511 | 78 ft | 8 kts | 265° |
| 2026-04-29 12:47 | 53.33547 | -2.84597 | 80 ft | 10 kts | 265° |
| 2026-04-29 12:47 | 53.33538 | -2.84792 | 86 ft | 16 kts | 265° |
| 2026-04-29 12:48 | 53.33530 | -2.84955 | 85 ft | 13 kts | 265° |
| 2026-04-29 12:48 | 53.33523 | -2.85103 | 88 ft | 12 kts | 265° |
| 2026-04-29 12:48 | 53.33517 | -2.85240 | 85 ft | 12 kts | 266° |
| 2026-04-29 12:48 | 53.33665 | -2.85513 | 89 ft | 0 kts | 356° |